Time;durP1;ratioP1;P1;durP2;ratioP2;P2;SDS_P1;SDS_P2;PMS_P1;PMS_P2;Temp;Humidity;BMP_temperature;BMP_pressure;BME280_temperature;BME280_humidity;BME280_pressure;Samples;Min_cycle;Max_cycle;Signal;HPM_P1;HPM_P2
2020/12/19 00:01:32;;;;;;;104.78;63.17;;;6.20;99.90;;;;;;5102462;28;20039;-57
2020/12/19 00:04:36;;;;;;;105.10;64.50;;;6.20;99.90;;;;;;5085408;28;20043;-57
2020/12/19 00:07:40;;;;;;;108.03;66.57;;;6.10;99.90;;;;;;5097494;28;20397;-57
2020/12/19 00:10:44;;;;;;;94.45;61.47;;;6.10;99.90;;;;;;5097076;28;20047;-56
2020/12/19 00:13:48;;;;;;;94.72;60.25;;;6.00;99.90;;;;;;5099157;28;20052;-57
2020/12/19 00:16:52;;;;;;;83.28;52.45;;;5.90;99.90;;;;;;5101452;28;20054;-54
2020/12/19 00:19:56;;;;;;;66.53;42.45;;;5.90;99.90;;;;;;5085431;28;20516;-57
2020/12/19 00:23:00;;;;;;;62.47;38.20;;;5.90;99.90;;;;;;5097164;28;20504;-57
2020/12/19 00:26:04;;;;;;;59.33;35.47;;;6.00;99.90;;;;;;5097074;28;20393;-57
2020/12/19 00:29:10;;;;;;;74.93;44.92;;;6.00;99.90;;;;;;5098612;28;20058;-54
2020/12/19 00:32:14;;;;;;;77.03;48.95;;;6.00;99.90;;;;;;5101722;28;20070;-53
2020/12/19 00:35:18;;;;;;;77.93;48.97;;;6.10;99.90;;;;;;5086687;28;20038;-54
2020/12/19 00:38:22;;;;;;;68.30;44.88;;;6.10;99.90;;;;;;5097257;28;20047;-57
2020/12/19 00:41:27;;;;;;;64.88;40.03;;;6.00;99.90;;;;;;5096802;28;20039;-57
2020/12/19 00:44:31;;;;;;;405.27;60.10;;;5.90;99.90;;;;;;5097928;28;20409;-56
2020/12/19 00:47:37;;;;;;;392.60;60.75;;;5.60;99.90;;;;;;5093408;28;20405;-54
2020/12/19 00:50:42;;;;;;;488.88;69.95;;;5.30;99.90;;;;;;5087750;28;20039;-54
2020/12/19 00:53:47;;;;;;;385.40;63.95;;;4.90;99.90;;;;;;5101056;28;20496;-58
2020/12/19 00:56:52;;;;;;;353.63;64.70;;;4.70;99.90;;;;;;5101071;28;20031;-54
2020/12/19 00:59:56;;;;;;;281.30;61.22;;;4.70;99.90;;;;;;5110917;28;20401;-56
2020/12/19 01:03:00;;;;;;;170.07;51.47;;;4.80;99.90;;;;;;5090462;28;20050;-53
2020/12/19 01:06:05;;;;;;;221.43;58.67;;;4.80;99.90;;;;;;5100769;28;20043;-53
2020/12/19 01:09:09;;;;;;;179.23;56.15;;;4.90;99.90;;;;;;5100652;28;20071;-53
2020/12/19 01:12:13;;;;;;;192.98;56.55;;;4.90;99.90;;;;;;5100824;28;20047;-58
2020/12/19 01:15:17;;;;;;;161.05;51.70;;;5.00;99.90;;;;;;5101134;28;20050;-55
2020/12/19 01:18:21;;;;;;;213.40;56.20;;;4.80;99.90;;;;;;5089290;28;20062;-55
2020/12/19 01:21:28;;;;;;;414.63;70.93;;;4.70;99.90;;;;;;5073588;28;20402;-54
2020/12/19 01:24:33;;;;;;;477.83;67.93;;;4.50;99.90;;;;;;5092300;28;20051;-54
2020/12/19 01:27:37;;;;;;;92.22;48.03;;;4.30;99.90;;;;;;5098218;28;20067;-53
2020/12/19 01:30:41;;;;;;;315.52;56.38;;;4.40;99.90;;;;;;5106988;28;20054;-55
2020/12/19 01:33:46;;;;;;;333.90;56.58;;;4.40;99.90;;;;;;5100169;28;20046;-53
2020/12/19 01:36:50;;;;;;;261.98;53.97;;;4.40;99.90;;;;;;5100186;28;20039;-57
2020/12/19 01:39:53;;;;;;;389.48;55.70;;;4.30;99.90;;;;;;5113702;28;20043;-53
2020/12/19 01:42:57;;;;;;;140.60;45.40;;;4.20;99.90;;;;;;5087181;28;20070;-53
2020/12/19 01:46:02;;;;;;;274.73;50.35;;;4.20;99.90;;;;;;5087381;28;20496;-53
2020/12/19 01:49:06;;;;;;;442.98;68.03;;;4.10;99.90;;;;;;5093950;28;20050;-54
2020/12/19 01:52:10;;;;;;;580.05;72.70;;;3.90;99.90;;;;;;5093713;28;20525;-53
2020/12/19 01:55:14;;;;;;;500.73;66.00;;;3.80;99.90;;;;;;5093818;28;20043;-53
2020/12/19 01:58:18;;;;;;;409.55;64.28;;;3.80;99.90;;;;;;5093496;28;20076;-58
2020/12/19 02:01:24;;;;;;;302.80;54.72;;;3.80;99.90;;;;;;5093578;28;20066;-57
2020/12/19 02:04:29;;;;;;;497.00;68.25;;;3.90;99.90;;;;;;5093430;28;20398;-53
2020/12/19 02:07:34;;;;;;;892.25;94.47;;;4.00;99.90;;;;;;5093684;28;20039;-56
2020/12/19 02:10:39;;;;;;;848.83;91.55;;;4.10;99.90;;;;;;5092851;28;20521;-57
2020/12/19 02:13:43;;;;;;;654.25;80.53;;;4.20;99.90;;;;;;5079785;28;20043;-57
2020/12/19 02:17:08;;;;;;;298.58;50.50;;;4.30;99.90;;;;;;5093212;28;20043;-58
2020/12/19 02:20:12;;;;;;;658.13;72.20;;;4.40;99.90;;;;;;5092969;28;20035;-56
2020/12/19 02:23:16;;;;;;;270.63;50.63;;;4.40;99.90;;;;;;5093137;28;20098;-56
2020/12/19 02:26:20;;;;;;;582.78;65.72;;;4.40;99.90;;;;;;5093279;28;20249;-58
2020/12/19 02:29:26;;;;;;;304.02;47.50;;;4.40;99.90;;;;;;5092971;28;20042;-56
2020/12/19 02:32:30;;;;;;;491.58;53.08;;;4.40;99.90;;;;;;5092971;28;20043;-57
2020/12/19 02:35:36;;;;;;;61.72;30.60;;;4.30;99.90;;;;;;5089813;28;20107;-55
2020/12/19 02:38:40;;;;;;;576.35;62.85;;;4.20;99.90;;;;;;5091289;28;20235;-54
2020/12/19 02:41:46;;;;;;;184.40;38.47;;;4.20;99.90;;;;;;5089955;28;20043;-58
2020/12/19 02:44:50;;;;;;;221.82;38.30;;;4.20;99.90;;;;;;5083580;28;20039;-56
2020/12/19 02:47:54;;;;;;;366.35;43.75;;;4.20;99.90;;;;;;5086890;28;20400;-58
2020/12/19 02:50:58;;;;;;;378.38;45.97;;;4.10;99.90;;;;;;5093671;28;20047;-51
2020/12/19 02:54:02;;;;;;;392.65;46.80;;;4.10;99.90;;;;;;5092640;28;20055;-54
2020/12/19 02:57:06;;;;;;;333.33;44.20;;;4.10;99.90;;;;;;5092345;28;20413;-55
2020/12/19 03:00:10;;;;;;;178.70;37.22;;;4.00;99.90;;;;;;5092423;28;20047;-58
2020/12/19 03:03:15;;;;;;;110.53;31.95;;;3.90;99.90;;;;;;5092623;28;20126;-55
2020/12/19 03:06:18;;;;;;;72.88;29.58;;;3.80;99.90;;;;;;5092309;28;20035;-55
2020/12/19 03:09:24;;;;;;;51.30;28.90;;;3.70;99.90;;;;;;5092451;28;20043;-53
2020/12/19 03:12:28;;;;;;;38.80;25.70;;;3.70;99.90;;;;;;5092239;28;20063;-54
2020/12/19 03:15:32;;;;;;;42.72;28.38;;;3.80;99.90;;;;;;5091977;28;20496;-55
2020/12/19 03:18:37;;;;;;;42.70;27.20;;;3.90;99.90;;;;;;5092330;28;20433;-56
2020/12/19 03:21:41;;;;;;;116.20;31.65;;;3.90;99.90;;;;;;5091805;28;20533;-58
2020/12/19 03:24:45;;;;;;;52.35;31.48;;;4.00;99.90;;;;;;5092059;28;20051;-56
2020/12/19 03:27:49;;;;;;;48.53;31.60;;;4.10;99.90;;;;;;5092033;28;20047;-55
2020/12/19 03:30:54;;;;;;;67.88;30.95;;;4.20;99.90;;;;;;5090869;28;20402;-57
2020/12/19 03:33:58;;;;;;;49.50;31.38;;;4.30;99.90;;;;;;5091431;28;20043;-56
2020/12/19 03:37:02;;;;;;;56.13;33.58;;;4.30;99.90;;;;;;5091595;28;20051;-54
2020/12/19 03:40:06;;;;;;;57.97;34.38;;;4.40;99.90;;;;;;5091333;28;20608;-53
2020/12/19 03:43:10;;;;;;;50.22;31.52;;;4.50;99.90;;;;;;5091912;28;20063;-53
2020/12/19 03:46:15;;;;;;;57.63;31.60;;;4.60;99.90;;;;;;5091958;28;20050;-53
2020/12/19 03:49:20;;;;;;;58.65;32.05;;;4.60;99.90;;;;;;5079570;28;20399;-54
2020/12/19 03:52:24;;;;;;;54.15;28.85;;;4.60;99.90;;;;;;5091410;28;20043;-54
2020/12/19 03:55:28;;;;;;;56.20;27.98;;;4.70;99.90;;;;;;5091599;28;20044;-53
2020/12/19 03:58:32;;;;;;;56.22;31.23;;;4.70;99.90;;;;;;5091509;28;20039;-53
2020/12/19 04:01:36;;;;;;;46.53;28.63;;;4.70;99.90;;;;;;5091547;28;20417;-53
2020/12/19 04:04:41;;;;;;;56.38;27.80;;;4.70;99.90;;;;;;5091576;28;20540;-57
2020/12/19 04:07:44;;;;;;;45.92;26.13;;;4.80;99.90;;;;;;5091659;28;20063;-58
2020/12/19 04:10:49;;;;;;;63.15;26.98;;;4.80;99.90;;;;;;5091335;28;20051;-58
2020/12/19 04:13:53;;;;;;;56.45;25.05;;;4.80;99.90;;;;;;5091580;28;20047;-57
2020/12/19 04:16:57;;;;;;;46.75;25.45;;;4.80;99.90;;;;;;5091705;28;20541;-57
2020/12/19 04:20:02;;;;;;;41.08;24.20;;;4.90;99.90;;;;;;5091028;28;20055;-56
2020/12/19 04:23:07;;;;;;;46.67;26.58;;;4.90;99.90;;;;;;5091438;28;20067;-56
2020/12/19 04:26:11;;;;;;;44.92;26.00;;;4.90;99.90;;;;;;5093903;28;20042;-56
2020/12/19 04:29:16;;;;;;;44.08;26.02;;;5.10;99.90;;;;;;5095628;28;20394;-58
2020/12/19 04:32:19;;;;;;;39.58;24.48;;;5.10;99.90;;;;;;5095155;28;20035;-56
2020/12/19 04:35:24;;;;;;;42.92;25.10;;;5.10;99.90;;;;;;5082878;28;20035;-58
2020/12/19 04:38:27;;;;;;;43.92;24.40;;;5.10;99.90;;;;;;5094780;28;20056;-55
2020/12/19 04:41:33;;;;;;;39.38;25.15;;;5.20;99.90;;;;;;5095002;28;20051;-54
2020/12/19 04:44:38;;;;;;;42.38;25.75;;;5.20;99.90;;;;;;5095392;28;20050;-56
2020/12/19 04:47:42;;;;;;;44.10;26.63;;;5.20;99.90;;;;;;5095362;28;20035;-57
2020/12/19 04:50:47;;;;;;;40.63;25.27;;;5.20;99.90;;;;;;5094519;28;20044;-56
2020/12/19 04:53:52;;;;;;;42.30;26.55;;;5.30;99.90;;;;;;5095111;28;20051;-57
2020/12/19 04:56:58;;;;;;;40.28;25.88;;;5.20;99.90;;;;;;5094699;28;20032;-54
2020/12/19 05:00:05;;;;;;;45.95;28.38;;;5.20;99.90;;;;;;5094760;28;20171;-53
2020/12/19 05:03:10;;;;;;;53.25;30.77;;;5.10;99.90;;;;;;5094942;28;20047;-56
2020/12/19 05:06:26;;;;;;;526.72;53.22;;;4.90;99.90;;;;;;5094609;28;20039;-56
2020/12/19 05:09:30;;;;;;;1514.75;129.48;;;4.50;99.90;;;;;;5094778;28;20430;-55
2020/12/19 05:12:34;;;;;;;1299.10;106.53;;;4.00;99.90;;;;;;5094561;28;20051;-53
2020/12/19 05:15:39;;;;;;;910.65;80.00;;;3.70;99.90;;;;;;5094736;28;20039;-53
2020/12/19 05:18:43;;;;;;;535.40;49.20;;;3.70;99.90;;;;;;5094658;28;20054;-54
2020/12/19 05:21:47;;;;;;;450.92;52.85;;;3.80;99.90;;;;;;5093959;28;20043;-56
2020/12/19 05:24:52;;;;;;;635.03;58.83;;;3.90;99.90;;;;;;5094377;28;20047;-58
2020/12/19 05:27:56;;;;;;;552.72;55.53;;;3.90;99.90;;;;;;5094371;28;20039;-57
2020/12/19 05:31:01;;;;;;;779.67;59.63;;;3.90;99.90;;;;;;5094070;28;20059;-54
2020/12/19 05:34:06;;;;;;;488.10;44.10;;;3.90;99.90;;;;;;5094220;28;20051;-53
2020/12/19 05:37:10;;;;;;;593.92;57.35;;;3.90;99.90;;;;;;5093361;28;20058;-54
2020/12/19 05:40:14;;;;;;;231.48;32.25;;;3.80;99.90;;;;;;5093676;28;20528;-57
2020/12/19 05:43:18;;;;;;;507.00;48.70;;;3.80;99.90;;;;;;5093824;28;20075;-54
2020/12/19 05:46:32;;;;;;;303.77;41.28;;;3.80;99.90;;;;;;5094129;28;20035;-55
2020/12/19 05:49:36;;;;;;;89.95;26.00;;;3.80;99.90;;;;;;5093670;28;20035;-54
2020/12/19 05:52:41;;;;;;;40.75;22.02;;;3.80;99.90;;;;;;5093568;28;20304;-54
2020/12/19 05:55:45;;;;;;;104.43;26.15;;;3.90;99.90;;;;;;5093682;28;20039;-55
2020/12/19 05:58:53;;;;;;;256.63;35.17;;;3.90;99.90;;;;;;5093552;28;20052;-54
2020/12/19 06:01:58;;;;;;;81.82;24.15;;;4.00;99.90;;;;;;5081014;28;20043;-54
2020/12/19 06:05:07;;;;;;;307.83;36.03;;;4.00;99.90;;;;;;5093728;28;20043;-54
2020/12/19 06:08:20;;;;;;;507.13;45.40;;;4.00;99.90;;;;;;5093396;28;20043;-55
2020/12/19 06:11:27;;;;;;;218.23;32.75;;;4.00;99.90;;;;;;5092399;28;20039;-58
2020/12/19 06:14:38;;;;;;;122.40;25.52;;;3.90;99.90;;;;;;5093269;28;20043;-57
2020/12/19 06:17:50;;;;;;;536.75;47.70;;;3.70;99.90;;;;;;5093613;28;20039;-57
2020/12/19 06:20:56;;;;;;;450.77;38.13;;;3.70;99.90;;;;;;5092743;28;20047;-57
2020/12/19 06:23:59;;;;;;;282.70;34.42;;;3.90;99.90;;;;;;5093330;28;20051;-56
2020/12/19 06:27:08;;;;;;;267.50;34.55;;;3.80;99.90;;;;;;5093311;28;20528;-54
2020/12/19 06:30:29;;;;;;;162.70;25.02;;;3.70;99.90;;;;;;5092760;28;20047;-58
2020/12/19 06:33:34;;;;;;;110.50;20.37;;;3.60;99.90;;;;;;5092815;28;20039;-56
2020/12/19 06:36:47;;;;;;;118.97;23.20;;;3.50;99.90;;;;;;5092987;28;20532;-58
2020/12/19 06:40:17;;;;;;;208.95;28.75;;;3.40;99.90;;;;;;5080074;28;20062;-51
2020/12/19 06:43:21;;;;;;;61.08;22.80;;;3.30;99.90;;;;;;5092854;28;20043;-58
2020/12/19 06:46:35;;;;;;;54.45;21.63;;;3.20;99.90;;;;;;5092900;28;20047;-58
2020/12/19 06:49:39;;;;;;;75.63;23.67;;;3.20;99.90;;;;;;5091835;28;20031;-57
2020/12/19 06:53:00;;;;;;;177.20;28.30;;;3.20;99.90;;;;;;5092381;28;20540;-55
2020/12/19 06:56:27;;;;;;;80.13;23.73;;;3.30;99.90;;;;;;5075325;28;20039;-55
2020/12/19 06:59:34;;;;;;;51.67;21.75;;;3.40;99.90;;;;;;5092778;28;20031;-57
2020/12/19 07:02:51;;;;;;;46.38;21.10;;;3.50;99.90;;;;;;5092571;28;20047;-56
2020/12/19 07:06:09;;;;;;;41.40;21.25;;;3.60;99.90;;;;;;5079781;28;20059;-54
2020/12/19 07:09:29;;;;;;;123.38;26.15;;;3.60;99.90;;;;;;5093377;28;20051;-56
2020/12/19 07:12:38;;;;;;;92.78;25.02;;;3.70;99.90;;;;;;5092279;28;20043;-57
2020/12/19 07:15:47;;;;;;;96.78;25.70;;;3.70;99.90;;;;;;5086005;28;20047;-57
2020/12/19 07:18:51;;;;;;;104.80;25.50;;;3.60;99.90;;;;;;5090089;28;20051;-56
2020/12/19 07:21:57;;;;;;;110.32;26.30;;;3.60;99.90;;;;;;5080882;28;20125;-56
2020/12/19 07:25:01;;;;;;;338.40;37.58;;;3.70;99.90;;;;;;5090485;28;20054;-55
2020/12/19 07:28:05;;;;;;;249.02;32.63;;;3.80;99.90;;;;;;5090299;28;20047;-55
2020/12/19 07:31:09;;;;;;;108.45;25.48;;;4.00;99.90;;;;;;5085460;28;20047;-59
2020/12/19 07:34:13;;;;;;;105.82;23.40;;;4.00;99.90;;;;;;5083355;28;20059;-54
2020/12/19 07:37:18;;;;;;;34.58;20.83;;;4.20;99.90;;;;;;5086454;28;20036;-58
2020/12/19 07:40:23;;;;;;;104.50;20.08;;;5.20;99.90;;;;;;5086652;28;20520;-56
2020/12/19 07:43:28;;;;;;;52.38;15.50;;;7.60;99.90;;;;;;5083438;28;20054;-57
2020/12/19 07:46:32;;;;;;;15.60;12.38;;;9.40;99.90;;;;;;5083625;28;20087;-56
2020/12/19 07:49:41;;;;;;;14.18;11.93;;;11.30;99.90;;;;;;5084925;28;20059;-55
2020/12/19 07:52:46;;;;;;;12.85;11.05;;;13.80;99.90;;;;;;5089140;28;20055;-60
2020/12/19 07:55:52;;;;;;;16.45;10.10;;;15.80;99.90;;;;;;5092082;28;20043;-58
2020/12/19 07:58:56;;;;;;;14.32;10.30;;;16.80;99.90;;;;;;5086292;28;20047;-59
2020/12/19 08:02:03;;;;;;;12.00;9.82;;;17.10;99.80;;;;;;5087168;28;20043;-56
2020/12/19 08:05:08;;;;;;;125.40;12.88;;;17.20;99.20;;;;;;5085689;28;20067;-61
2020/12/19 08:08:12;;;;;;;25.08;10.23;;;15.80;99.60;;;;;;5078952;28;20406;-58
2020/12/19 08:11:16;;;;;;;186.20;14.82;;;16.80;99.20;;;;;;5091718;28;20047;-58
2020/12/19 08:14:22;;;;;;;311.77;18.90;;;15.20;99.30;;;;;;5085585;28;20066;-55
2020/12/19 08:17:26;;;;;;;311.73;17.35;;;14.70;99.90;;;;;;5084797;28;20039;-56
2020/12/19 08:20:36;;;;;;;100.43;13.55;;;13.50;99.90;;;;;;5087716;28;20059;-54
2020/12/19 08:23:40;;;;;;;27.00;14.38;;;12.00;99.90;;;;;;5086775;28;20055;-55
2020/12/19 08:26:44;;;;;;;133.18;24.90;;;12.50;99.90;;;;;;5081216;28;20035;-54
2020/12/19 08:30:21;;;;;;;153.57;17.25;;;12.90;99.90;;;;;;5085474;28;20063;-54
2020/12/19 08:33:29;;;;;;;130.52;17.33;;;10.60;99.90;;;;;;5077235;28;20047;-56
2020/12/19 08:36:34;;;;;;;40.42;14.68;;;9.10;99.90;;;;;;5092080;28;20397;-54
2020/12/19 08:39:38;;;;;;;286.48;25.02;;;8.40;99.90;;;;;;5081358;28;20043;-55
2020/12/19 08:42:44;;;;;;;164.00;21.85;;;8.10;99.90;;;;;;5083426;28;20042;-56
2020/12/19 08:45:49;;;;;;;291.10;28.00;;;7.10;99.90;;;;;;5088437;28;20043;-56
2020/12/19 08:49:00;;;;;;;331.40;26.35;;;6.30;99.90;;;;;;5089860;28;20043;-55
2020/12/19 08:52:04;;;;;;;231.70;26.58;;;5.90;99.90;;;;;;5095453;28;20043;-54
2020/12/19 08:55:08;;;;;;;171.27;22.25;;;6.30;99.90;;;;;;5079701;28;20043;-58
2020/12/19 08:58:28;;;;;;;372.77;28.20;;;6.50;99.90;;;;;;5085250;28;20035;-55
2020/12/19 09:01:33;;;;;;;329.75;30.00;;;5.50;99.90;;;;;;5084726;28;20051;-55
2020/12/19 09:04:47;;;;;;;112.00;20.88;;;5.30;99.90;;;;;;5085462;28;20520;-56
2020/12/19 09:07:56;;;;;;;26.55;18.08;;;5.80;99.90;;;;;;5089698;28;20051;-59
2020/12/19 09:11:01;;;;;;;63.85;19.08;;;6.10;99.90;;;;;;5089658;28;20521;-55
2020/12/19 09:14:11;;;;;;;172.10;24.88;;;6.90;99.90;;;;;;5084828;28;20153;-56
2020/12/19 09:17:30;;;;;;;306.95;28.63;;;7.50;99.90;;;;;;5071887;28;20051;-56
2020/12/19 09:20:34;;;;;;;100.95;19.77;;;8.10;99.90;;;;;;5082460;28;20036;-54
2020/12/19 09:23:38;;;;;;;55.17;19.05;;;8.60;99.90;;;;;;5087348;28;20043;-54
2020/12/19 09:26:45;;;;;;;24.77;15.60;;;9.50;99.90;;;;;;5087600;28;20043;-57
2020/12/19 09:29:49;;;;;;;55.20;16.00;;;10.60;99.90;;;;;;5087958;28;20058;-54
2020/12/19 09:32:57;;;;;;;83.57;17.98;;;11.80;99.90;;;;;;5086860;28;20055;-57
2020/12/19 09:36:01;;;;;;;154.77;21.20;;;13.00;99.90;;;;;;5088828;28;20051;-54
2020/12/19 09:39:06;;;;;;;221.82;24.02;;;13.80;99.90;;;;;;5090701;28;20047;-57
2020/12/19 09:42:10;;;;;;;242.55;25.70;;;11.90;99.90;;;;;;5089368;28;20046;-55
2020/12/19 09:45:14;;;;;;;94.32;22.35;;;10.20;99.90;;;;;;5088197;28;20067;-55
2020/12/19 09:48:20;;;;;;;236.25;24.05;;;10.10;99.90;;;;;;5087184;28;20043;-55
2020/12/19 09:51:30;;;;;;;216.82;27.05;;;10.20;99.90;;;;;;5078648;28;20417;-53
2020/12/19 09:54:34;;;;;;;338.35;28.75;;;9.50;99.90;;;;;;5091040;28;20047;-56
2020/12/19 09:57:38;;;;;;;216.85;24.60;;;9.20;99.90;;;;;;5082034;28;20043;-54
2020/12/19 10:00:42;;;;;;;466.30;35.25;;;9.10;99.90;;;;;;5089072;28;20414;-54
2020/12/19 10:03:46;;;;;;;113.93;24.45;;;8.10;99.90;;;;;;5092833;28;20043;-57
2020/12/19 10:06:51;;;;;;;270.33;26.38;;;8.30;99.90;;;;;;5078878;28;20039;-57
2020/12/19 10:09:55;;;;;;;112.57;22.48;;;8.70;99.90;;;;;;5089454;28;20040;-55
2020/12/19 10:13:00;;;;;;;93.88;22.35;;;9.10;99.90;;;;;;5074663;28;20282;-57
2020/12/19 10:16:05;;;;;;;25.27;16.73;;;10.10;99.90;;;;;;5077333;28;20046;-55
2020/12/19 10:19:10;;;;;;;54.63;18.13;;;11.00;99.90;;;;;;5089369;28;20074;-58
2020/12/19 10:22:14;;;;;;;49.47;19.05;;;11.50;99.90;;;;;;5091813;28;20051;-54
2020/12/19 10:25:18;;;;;;;32.03;18.48;;;12.20;99.90;;;;;;5083845;28;20042;-55
2020/12/19 10:28:22;;;;;;;95.90;19.98;;;13.40;99.90;;;;;;5090305;28;20047;-54
2020/12/19 10:31:29;;;;;;;44.53;19.33;;;14.60;99.90;;;;;;5087658;28;20035;-55
2020/12/19 10:34:33;;;;;;;31.42;19.88;;;15.40;99.90;;;;;;5092974;28;20051;-56
2020/12/19 10:37:37;;;;;;;36.40;20.33;;;15.20;99.90;;;;;;5094061;28;20034;-55
2020/12/19 10:40:42;;;;;;;27.63;19.45;;;14.80;99.90;;;;;;5093183;28;20050;-54
2020/12/19 10:43:46;;;;;;;74.57;22.85;;;14.70;99.90;;;;;;5086579;28;20043;-54
2020/12/19 10:46:50;;;;;;;48.65;22.75;;;14.10;99.90;;;;;;5085011;28;20410;-55
2020/12/19 10:49:54;;;;;;;89.55;23.08;;;13.20;99.90;;;;;;5086930;28;20043;-56
2020/12/19 10:52:58;;;;;;;199.43;27.98;;;13.40;99.90;;;;;;5090438;28;20050;-54
2020/12/19 10:56:02;;;;;;;238.93;29.23;;;12.70;99.90;;;;;;5087075;28;20036;-55
2020/12/19 10:59:06;;;;;;;86.70;25.63;;;12.10;99.90;;;;;;5079905;28;20031;-54
2020/12/19 11:02:11;;;;;;;199.52;29.15;;;11.70;99.90;;;;;;5096416;28;20047;-54
2020/12/19 11:05:15;;;;;;;103.10;26.75;;;10.60;99.90;;;;;;5077655;28;20670;-54
2020/12/19 11:08:18;;;;;;;189.43;30.27;;;10.80;99.90;;;;;;5076280;28;20039;-54
2020/12/19 11:11:22;;;;;;;134.07;27.95;;;10.30;99.90;;;;;;5084989;28;20043;-56
2020/12/19 11:14:26;;;;;;;60.50;22.40;;;10.40;99.90;;;;;;5087289;28;20510;-55
2020/12/19 11:17:31;;;;;;;59.35;25.00;;;10.20;99.90;;;;;;5090413;28;20039;-56
2020/12/19 11:20:35;;;;;;;32.00;21.80;;;10.40;99.90;;;;;;5078726;28;20039;-54
2020/12/19 11:23:39;;;;;;;53.75;23.48;;;10.30;99.90;;;;;;5075723;28;20054;-54
2020/12/19 11:26:43;;;;;;;36.17;21.73;;;10.30;99.90;;;;;;5088799;28;20043;-54
2020/12/19 11:29:47;;;;;;;51.42;24.33;;;11.40;99.90;;;;;;5089209;28;20398;-57
2020/12/19 11:32:53;;;;;;;34.72;22.50;;;13.00;99.90;;;;;;5089918;28;20046;-55
2020/12/19 11:36:02;;;;;;;31.35;20.92;;;14.30;99.90;;;;;;5089235;28;20035;-56
2020/12/19 11:39:11;;;;;;;33.42;23.10;;;16.40;99.90;;;;;;5089278;28;20118;-54
2020/12/19 11:42:16;;;;;;;28.88;21.38;;;18.60;99.90;;;;;;5089367;28;20044;-55
2020/12/19 11:45:21;;;;;;;21.25;16.27;;;20.50;99.10;;;;;;5089528;28;20035;-56
2020/12/19 11:48:25;;;;;;;24.15;18.23;;;19.60;97.10;;;;;;5089437;28;20552;-58
2020/12/19 11:51:31;;;;;;;22.65;18.23;;;16.40;99.30;;;;;;5077297;28;20047;-55
2020/12/19 11:54:41;;;;;;;25.75;18.85;;;15.70;99.90;;;;;;5089332;28;20042;-54
2020/12/19 11:57:45;;;;;;;24.65;18.58;;;19.20;99.90;;;;;;5089409;28;20047;-55
2020/12/19 12:00:49;;;;;;;22.92;19.48;;;22.30;94.30;;;;;;5088836;28;20039;-55
2020/12/19 12:03:53;;;;;;;26.65;21.75;;;21.10;93.90;;;;;;5089310;28;20039;-55
2020/12/19 12:06:58;;;;;;;27.58;20.80;;;20.90;93.20;;;;;;5089510;28;20520;-57
2020/12/19 12:10:02;;;;;;;20.27;16.92;;;18.80;94.90;;;;;;5089119;28;20059;-55
2020/12/19 12:13:06;;;;;;;25.83;21.08;;;19.10;95.90;;;;;;5089067;28;20394;-58
2020/12/19 12:16:11;;;;;;;21.55;18.40;;;19.90;93.90;;;;;;5089480;28;20039;-55
2020/12/19 12:19:16;;;;;;;24.20;19.98;;;21.00;91.80;;;;;;5088413;28;20055;-55
2020/12/19 12:22:20;;;;;;;22.77;19.70;;;18.40;95.60;;;;;;5089668;28;20102;-55
2020/12/19 12:25:24;;;;;;;22.90;19.50;;;19.10;95.20;;;;;;5089386;28;20051;-55
2020/12/19 12:28:28;;;;;;;21.63;17.20;;;20.30;95.20;;;;;;5089125;28;20043;-56
2020/12/19 12:31:35;;;;;;;21.63;18.45;;;22.50;92.70;;;;;;5088769;28;20047;-54
2020/12/19 12:34:39;;;;;;;20.88;18.02;;;22.10;87.90;;;;;;5088878;28;20512;-55
2020/12/19 12:37:47;;;;;;;18.88;16.23;;;20.90;92.50;;;;;;5089124;28;20052;-54
2020/12/19 12:40:51;;;;;;;20.00;16.48;;;23.80;89.90;;;;;;5088780;28;20670;-54
2020/12/19 12:43:55;;;;;;;16.98;15.18;;;26.00;80.70;;;;;;5088645;28;20055;-54
2020/12/19 12:47:00;;;;;;;18.95;16.95;;;27.60;75.30;;;;;;5090037;28;20055;-54
2020/12/19 12:50:04;;;;;;;21.90;19.23;;;26.30;70.10;;;;;;5092444;28;20051;-53
2020/12/19 12:53:09;;;;;;;21.02;18.80;;;25.30;73.90;;;;;;5093057;28;20043;-52
2020/12/19 12:56:14;;;;;;;22.50;19.50;;;21.10;77.20;;;;;;5092950;28;20059;-55
2020/12/19 12:59:18;;;;;;;20.13;17.95;;;21.40;83.20;;;;;;5092452;28;20300;-56
2020/12/19 13:02:22;;;;;;;23.13;19.63;;;22.10;82.80;;;;;;5093046;28;20102;-54
2020/12/19 13:05:26;;;;;;;23.17;19.73;;;21.30;83.60;;;;;;5092751;28;20347;-54
2020/12/19 13:08:30;;;;;;;29.25;22.75;;;20.40;85.20;;;;;;5092853;28;20047;-53
2020/12/19 13:11:35;;;;;;;30.88;24.13;;;18.50;89.60;;;;;;5092089;28;20035;-54
2020/12/19 13:14:39;;;;;;;32.95;25.65;;;16.00;94.50;;;;;;5092248;28;20051;-54
2020/12/19 13:17:44;;;;;;;35.05;26.23;;;14.80;99.40;;;;;;5092612;28;20521;-57
2020/12/19 13:20:48;;;;;;;33.05;25.52;;;14.40;99.90;;;;;;5092038;28;20051;-54
2020/12/19 13:23:52;;;;;;;34.38;26.30;;;14.30;99.90;;;;;;5092494;28;20039;-54
2020/12/19 13:26:57;;;;;;;40.67;29.08;;;13.90;99.90;;;;;;5091906;28;20043;-54
2020/12/19 13:30:02;;;;;;;43.17;29.58;;;13.10;99.90;;;;;;5091853;28;20039;-55
2020/12/19 13:33:06;;;;;;;42.15;30.00;;;12.50;99.90;;;;;;5091992;28;20066;-55
2020/12/19 13:36:11;;;;;;;46.55;31.38;;;12.00;99.90;;;;;;5092443;28;20508;-57
2020/12/19 13:39:15;;;;;;;45.83;32.22;;;11.50;99.90;;;;;;5079841;28;20418;-56
2020/12/19 13:42:19;;;;;;;45.58;31.52;;;11.20;99.90;;;;;;5091571;28;20035;-57
2020/12/19 13:45:28;;;;;;;49.60;32.22;;;11.50;99.90;;;;;;5078255;28;20401;-54
2020/12/19 13:48:32;;;;;;;47.97;32.00;;;11.30;99.90;;;;;;5091710;28;20031;-54
2020/12/19 13:51:36;;;;;;;48.28;31.10;;;11.20;99.90;;;;;;5091704;28;20505;-56
2020/12/19 13:54:40;;;;;;;48.10;30.27;;;11.50;99.90;;;;;;5092023;28;20039;-54
2020/12/19 13:57:44;;;;;;;46.05;30.05;;;11.60;99.90;;;;;;5091183;28;20047;-54
2020/12/19 14:00:48;;;;;;;43.72;30.42;;;11.70;99.90;;;;;;5090919;28;20525;-54
2020/12/19 14:03:52;;;;;;;44.40;30.58;;;11.90;99.90;;;;;;5091699;28;20051;-54
2020/12/19 14:06:57;;;;;;;44.05;28.10;;;12.00;99.90;;;;;;5091821;28;20385;-54
2020/12/19 14:10:01;;;;;;;42.28;26.88;;;12.00;99.90;;;;;;5091638;28;20043;-56
2020/12/19 14:13:05;;;;;;;38.53;25.77;;;11.80;99.90;;;;;;5091235;28;20043;-54
2020/12/19 14:16:09;;;;;;;39.35;27.58;;;11.70;99.90;;;;;;5090527;28;20401;-54
2020/12/19 14:19:16;;;;;;;44.67;29.27;;;11.60;99.90;;;;;;5083807;28;20047;-54
2020/12/19 14:22:20;;;;;;;49.75;33.22;;;11.60;99.90;;;;;;5091672;28;20045;-54
2020/12/19 14:25:25;;;;;;;43.55;29.85;;;11.50;99.90;;;;;;5091168;28;20050;-56
2020/12/19 14:28:29;;;;;;;47.08;31.70;;;10.20;99.90;;;;;;5091382;28;20498;-54
2020/12/19 14:31:34;;;;;;;47.33;30.27;;;9.80;99.90;;;;;;5090816;28;20063;-53
2020/12/19 14:34:40;;;;;;;45.45;29.10;;;9.80;99.90;;;;;;5090834;28;20070;-55
2020/12/19 14:37:44;;;;;;;47.92;30.00;;;9.80;99.90;;;;;;5091328;28;20122;-55
2020/12/19 14:40:48;;;;;;;50.63;29.65;;;9.70;99.90;;;;;;5090705;28;20054;-57
2020/12/19 14:43:52;;;;;;;46.25;29.70;;;9.80;99.90;;;;;;5090914;28;20047;-56
2020/12/19 14:46:57;;;;;;;48.45;30.90;;;9.80;99.90;;;;;;5090829;28;20050;-55
2020/12/19 14:50:06;;;;;;;49.40;31.20;;;10.00;99.90;;;;;;5090222;28;20043;-55
2020/12/19 14:53:10;;;;;;;51.75;31.40;;;10.00;99.90;;;;;;5090541;28;20047;-56
2020/12/19 14:56:16;;;;;;;54.40;33.33;;;10.00;99.90;;;;;;5091030;28;20394;-55
2020/12/19 14:59:21;;;;;;;52.75;34.35;;;10.00;99.90;;;;;;5090542;28;20043;-55
2020/12/19 15:02:25;;;;;;;55.25;34.63;;;9.80;99.90;;;;;;5090122;28;20043;-55
2020/12/19 15:05:29;;;;;;;56.90;37.17;;;9.70;99.90;;;;;;5090754;28;20047;-55
2020/12/19 15:08:33;;;;;;;57.35;34.72;;;9.60;99.90;;;;;;5090724;28;20043;-55
2020/12/19 15:11:38;;;;;;;54.75;33.33;;;9.60;99.90;;;;;;5089237;28;20039;-56
2020/12/19 15:14:41;;;;;;;56.53;37.03;;;9.40;99.90;;;;;;5090141;28;20118;-56
2020/12/19 15:17:45;;;;;;;55.08;35.88;;;9.10;99.90;;;;;;5090141;28;20063;-55
2020/12/19 15:20:49;;;;;;;61.83;36.00;;;9.00;99.90;;;;;;5090085;28;20035;-56
2020/12/19 15:23:53;;;;;;;56.65;35.65;;;8.90;99.90;;;;;;5090096;28;20063;-56
2020/12/19 15:26:57;;;;;;;58.00;36.65;;;8.70;99.90;;;;;;5090093;28;20618;-59
2020/12/19 15:30:02;;;;;;;61.08;39.80;;;8.60;99.90;;;;;;5089903;28;20047;-56
2020/12/19 15:33:07;;;;;;;51.30;33.05;;;8.60;99.90;;;;;;5089575;28;20046;-55
2020/12/19 15:36:11;;;;;;;66.70;42.42;;;8.60;99.90;;;;;;5077840;28;20524;-55
2020/12/19 15:39:15;;;;;;;57.67;36.65;;;8.60;99.90;;;;;;5089746;28;20043;-55
2020/12/19 15:42:19;;;;;;;66.43;41.70;;;8.70;99.90;;;;;;5089933;28;20039;-55